sensor_id;sensor_type;location;lat;lon;timestamp;pressure;altitude;pressure_sealevel;temperature;humidity
73501;BME280;61721;42.206;25.320;2023-10-31T00:00:41;99751.34;;;19.56;53.78
73501;BME280;61721;42.206;25.320;2023-10-31T00:03:09;99744.56;;;19.27;54.20
73501;BME280;61721;42.206;25.320;2023-10-31T00:05:37;99746.13;;;19.09;54.71
73501;BME280;61721;42.206;25.320;2023-10-31T00:08:06;99741.25;;;19.18;54.49
73501;BME280;61721;42.206;25.320;2023-10-31T00:10:34;99732.19;;;19.24;54.47
73501;BME280;61721;42.206;25.320;2023-10-31T00:13:02;99732.47;;;19.09;54.64
73501;BME280;61721;42.206;25.320;2023-10-31T00:15:29;99730.91;;;19.27;53.90
73501;BME280;61721;42.206;25.320;2023-10-31T00:17:59;99728.41;;;19.25;53.89
73501;BME280;61721;42.206;25.320;2023-10-31T00:20:27;99732.78;;;19.33;53.85
73501;BME280;61721;42.206;25.320;2023-10-31T00:22:55;99730.66;;;18.97;55.00
73501;BME280;61721;42.206;25.320;2023-10-31T00:25:24;99726.19;;;19.09;54.69
73501;BME280;61721;42.206;25.320;2023-10-31T00:27:54;99726.84;;;19.04;54.82
73501;BME280;61721;42.206;25.320;2023-10-31T00:30:21;99722.16;;;19.18;54.45
73501;BME280;61721;42.206;25.320;2023-10-31T00:32:48;99719.69;;;19.10;54.88
73501;BME280;61721;42.206;25.320;2023-10-31T00:35:16;99724.97;;;18.98;54.95
73501;BME280;61721;42.206;25.320;2023-10-31T00:37:43;99715.09;;;19.04;55.24
73501;BME280;61721;42.206;25.320;2023-10-31T00:40:12;99708.91;;;18.84;55.70
73501;BME280;61721;42.206;25.320;2023-10-31T00:42:43;99711.16;;;18.93;55.11
73501;BME280;61721;42.206;25.320;2023-10-31T00:45:11;99709.66;;;18.97;54.89
73501;BME280;61721;42.206;25.320;2023-10-31T00:47:44;99711.59;;;18.90;55.03
73501;BME280;61721;42.206;25.320;2023-10-31T00:50:12;99711.47;;;18.72;55.23
73501;BME280;61721;42.206;25.320;2023-10-31T00:52:39;99720.25;;;17.90;56.24
73501;BME280;61721;42.206;25.320;2023-10-31T00:55:07;99715.22;;;17.67;56.44
73501;BME280;61721;42.206;25.320;2023-10-31T00:57:35;99709.72;;;17.34;55.99
73501;BME280;61721;42.206;25.320;2023-10-31T01:00:05;99712.50;;;17.80;54.15
73501;BME280;61721;42.206;25.320;2023-10-31T01:02:34;99714.50;;;17.25;55.76
73501;BME280;61721;42.206;25.320;2023-10-31T01:05:01;99709.44;;;17.02;56.51
73501;BME280;61721;42.206;25.320;2023-10-31T01:07:29;99709.63;;;16.94;56.10
73501;BME280;61721;42.206;25.320;2023-10-31T01:10:00;99701.38;;;16.74;56.27
73501;BME280;61721;42.206;25.320;2023-10-31T01:12:28;99705.31;;;16.65;56.47
73501;BME280;61721;42.206;25.320;2023-10-31T01:14:56;99702.41;;;16.67;56.58
73501;BME280;61721;42.206;25.320;2023-10-31T01:17:25;99707.16;;;16.58;56.70
73501;BME280;61721;42.206;25.320;2023-10-31T01:19:53;99701.41;;;16.81;56.26
73501;BME280;61721;42.206;25.320;2023-10-31T01:22:22;99711.38;;;17.28;55.35
73501;BME280;61721;42.206;25.320;2023-10-31T01:24:56;99717.06;;;17.53;53.78
73501;BME280;61721;42.206;25.320;2023-10-31T01:27:24;99715.38;;;17.52;53.35
73501;BME280;61721;42.206;25.320;2023-10-31T01:29:51;99717.06;;;17.60;53.20
73501;BME280;61721;42.206;25.320;2023-10-31T01:32:22;99722.06;;;17.36;53.42
73501;BME280;61721;42.206;25.320;2023-10-31T01:34:51;99707.72;;;16.88;54.34
73501;BME280;61721;42.206;25.320;2023-10-31T01:37:22;99708.41;;;17.03;54.05
73501;BME280;61721;42.206;25.320;2023-10-31T01:39:50;99706.69;;;16.96;54.12
73501;BME280;61721;42.206;25.320;2023-10-31T01:42:19;99700.22;;;17.03;53.75
73501;BME280;61721;42.206;25.320;2023-10-31T01:44:47;99702.47;;;16.80;54.44
73501;BME280;61721;42.206;25.320;2023-10-31T01:47:15;99695.94;;;16.74;54.91
73501;BME280;61721;42.206;25.320;2023-10-31T01:49:43;99697.59;;;16.69;54.96
73501;BME280;61721;42.206;25.320;2023-10-31T01:52:12;99697.88;;;16.87;54.45
73501;BME280;61721;42.206;25.320;2023-10-31T01:54:39;99696.09;;;17.27;53.15
73501;BME280;61721;42.206;25.320;2023-10-31T01:57:07;99699.47;;;17.36;52.75
73501;BME280;61721;42.206;25.320;2023-10-31T01:59:36;99700.38;;;16.82;54.09
73501;BME280;61721;42.206;25.320;2023-10-31T02:02:04;99702.53;;;16.59;55.10
73501;BME280;61721;42.206;25.320;2023-10-31T02:04:32;99692.91;;;16.56;55.00
73501;BME280;61721;42.206;25.320;2023-10-31T02:06:59;99691.75;;;16.72;54.64
73501;BME280;61721;42.206;25.320;2023-10-31T02:09:28;99692.06;;;16.55;54.88
73501;BME280;61721;42.206;25.320;2023-10-31T02:12:00;99690.56;;;16.46;54.92
73501;BME280;61721;42.206;25.320;2023-10-31T02:14:28;99698.25;;;16.36;55.05
73501;BME280;61721;42.206;25.320;2023-10-31T02:16:57;99686.22;;;16.52;54.44
73501;BME280;61721;42.206;25.320;2023-10-31T02:19:24;99680.75;;;16.45;54.23
73501;BME280;61721;42.206;25.320;2023-10-31T02:21:53;99684.75;;;16.15;54.63
73501;BME280;61721;42.206;25.320;2023-10-31T02:24:23;99684.59;;;16.23;54.40
73501;BME280;61721;42.206;25.320;2023-10-31T02:26:50;99686.59;;;16.42;54.03
73501;BME280;61721;42.206;25.320;2023-10-31T02:29:20;99680.59;;;16.19;54.50
73501;BME280;61721;42.206;25.320;2023-10-31T02:31:49;99674.38;;;16.25;54.46
73501;BME280;61721;42.206;25.320;2023-10-31T02:34:18;99675.00;;;15.93;55.23
73501;BME280;61721;42.206;25.320;2023-10-31T02:36:46;99685.63;;;16.22;55.01
73501;BME280;61721;42.206;25.320;2023-10-31T02:39:15;99680.78;;;16.52;53.62
73501;BME280;61721;42.206;25.320;2023-10-31T02:41:42;99684.25;;;16.39;53.83
73501;BME280;61721;42.206;25.320;2023-10-31T02:44:09;99687.63;;;16.07;54.65
73501;BME280;61721;42.206;25.320;2023-10-31T02:46:56;99688.94;;;16.17;54.63
73501;BME280;61721;42.206;25.320;2023-10-31T02:49:24;99689.31;;;16.08;54.45
73501;BME280;61721;42.206;25.320;2023-10-31T02:51:51;99684.34;;;15.83;54.86
73501;BME280;61721;42.206;25.320;2023-10-31T02:54:21;99681.03;;;15.88;55.05
73501;BME280;61721;42.206;25.320;2023-10-31T02:56:49;99683.22;;;15.71;55.19
73501;BME280;61721;42.206;25.320;2023-10-31T02:59:17;99677.63;;;15.51;56.08
73501;BME280;61721;42.206;25.320;2023-10-31T03:01:44;99680.78;;;15.55;55.77
73501;BME280;61721;42.206;25.320;2023-10-31T03:04:12;99683.72;;;15.32;56.21
73501;BME280;61721;42.206;25.320;2023-10-31T03:06:39;99676.06;;;15.42;56.64
73501;BME280;61721;42.206;25.320;2023-10-31T03:09:09;99669.34;;;15.87;55.53
73501;BME280;61721;42.206;25.320;2023-10-31T03:11:42;99673.13;;;15.58;56.17
73501;BME280;61721;42.206;25.320;2023-10-31T03:14:10;99674.63;;;15.68;56.44
73501;BME280;61721;42.206;25.320;2023-10-31T03:16:38;99669.28;;;15.53;56.83
73501;BME280;61721;42.206;25.320;2023-10-31T03:19:06;99676.28;;;15.41;57.09
73501;BME280;61721;42.206;25.320;2023-10-31T03:21:33;99668.75;;;15.64;56.86
73501;BME280;61721;42.206;25.320;2023-10-31T03:24:01;99673.66;;;15.54;57.06
73501;BME280;61721;42.206;25.320;2023-10-31T03:26:29;99668.06;;;15.55;57.06
73501;BME280;61721;42.206;25.320;2023-10-31T03:28:59;99670.13;;;15.53;57.05
73501;BME280;61721;42.206;25.320;2023-10-31T03:31:26;99668.78;;;15.43;57.27
73501;BME280;61721;42.206;25.320;2023-10-31T03:33:54;99662.91;;;15.39;56.83
73501;BME280;61721;42.206;25.320;2023-10-31T03:36:21;99670.72;;;15.27;57.03
73501;BME280;61721;42.206;25.320;2023-10-31T03:38:50;99665.88;;;15.02;57.20
73501;BME280;61721;42.206;25.320;2023-10-31T03:41:17;99662.59;;;15.06;56.87
73501;BME280;61721;42.206;25.320;2023-10-31T03:43:45;99660.25;;;15.24;56.56
73501;BME280;61721;42.206;25.320;2023-10-31T03:46:14;99663.38;;;15.21;57.14
73501;BME280;61721;42.206;25.320;2023-10-31T03:48:43;99661.94;;;15.25;57.05
73501;BME280;61721;42.206;25.320;2023-10-31T03:51:10;99660.59;;;15.15;57.84
73501;BME280;61721;42.206;25.320;2023-10-31T03:53:37;99664.78;;;15.67;56.40
73501;BME280;61721;42.206;25.320;2023-10-31T03:56:06;99659.69;;;15.29;57.46
73501;BME280;61721;42.206;25.320;2023-10-31T03:58:33;99662.72;;;15.19;57.99
73501;BME280;61721;42.206;25.320;2023-10-31T04:01:01;99660.13;;;15.33;57.59
73501;BME280;61721;42.206;25.320;2023-10-31T04:03:30;99666.34;;;15.05;58.49
73501;BME280;61721;42.206;25.320;2023-10-31T04:05:57;99661.63;;;14.92;59.06
73501;BME280;61721;42.206;25.320;2023-10-31T04:08:25;99656.72;;;15.03;58.81
73501;BME280;61721;42.206;25.320;2023-10-31T04:10:52;99654.44;;;15.27;57.58
73501;BME280;61721;42.206;25.320;2023-10-31T04:13:21;99663.59;;;14.84;59.09
73501;BME280;61721;42.206;25.320;2023-10-31T04:15:49;99663.22;;;15.30;57.94
73501;BME280;61721;42.206;25.320;2023-10-31T04:18:27;99679.00;;;14.62;58.98
73501;BME280;61721;42.206;25.320;2023-10-31T04:20:56;99692.47;;;14.11;60.09
73501;BME280;61721;42.206;25.320;2023-10-31T04:23:23;99689.63;;;14.78;58.69
73501;BME280;61721;42.206;25.320;2023-10-31T04:25:51;99683.03;;;14.07;59.36
73501;BME280;61721;42.206;25.320;2023-10-31T04:28:20;99680.94;;;15.04;56.79
73501;BME280;61721;42.206;25.320;2023-10-31T04:30:50;99685.44;;;14.97;56.59
73501;BME280;61721;42.206;25.320;2023-10-31T04:33:17;99686.78;;;14.50;57.81
73501;BME280;61721;42.206;25.320;2023-10-31T04:35:45;99687.22;;;14.69;57.45
73501;BME280;61721;42.206;25.320;2023-10-31T04:38:14;99682.28;;;14.57;58.37
73501;BME280;61721;42.206;25.320;2023-10-31T04:40:58;99683.84;;;14.67;57.42
73501;BME280;61721;42.206;25.320;2023-10-31T04:43:27;99687.59;;;14.66;57.94
73501;BME280;61721;42.206;25.320;2023-10-31T04:45:54;99682.94;;;14.59;57.73
73501;BME280;61721;42.206;25.320;2023-10-31T04:48:21;99689.00;;;14.61;57.58
73501;BME280;61721;42.206;25.320;2023-10-31T04:50:49;99689.66;;;14.64;57.83
73501;BME280;61721;42.206;25.320;2023-10-31T04:53:18;99690.25;;;14.44;58.11
73501;BME280;61721;42.206;25.320;2023-10-31T04:55:46;99688.56;;;14.43;58.07
73501;BME280;61721;42.206;25.320;2023-10-31T04:58:13;99695.44;;;14.31;57.92
73501;BME280;61721;42.206;25.320;2023-10-31T05:00:41;99691.72;;;14.32;57.42
73501;BME280;61721;42.206;25.320;2023-10-31T05:03:10;99688.63;;;14.35;57.22
73501;BME280;61721;42.206;25.320;2023-10-31T05:05:37;99691.34;;;14.35;57.21
73501;BME280;61721;42.206;25.320;2023-10-31T05:08:07;99686.41;;;14.24;57.79
73501;BME280;61721;42.206;25.320;2023-10-31T05:10:36;99683.03;;;14.22;58.33
73501;BME280;61721;42.206;25.320;2023-10-31T05:13:03;99686.03;;;14.27;58.15
73501;BME280;61721;42.206;25.320;2023-10-31T05:15:31;99686.94;;;14.34;58.17
73501;BME280;61721;42.206;25.320;2023-10-31T05:17:58;99685.25;;;14.33;58.55
73501;BME280;61721;42.206;25.320;2023-10-31T05:20:28;99689.09;;;14.53;57.95
73501;BME280;61721;42.206;25.320;2023-10-31T05:22:56;99688.56;;;14.43;58.54
73501;BME280;61721;42.206;25.320;2023-10-31T05:25:23;99699.84;;;14.47;58.87
73501;BME280;61721;42.206;25.320;2023-10-31T05:27:53;99692.63;;;14.69;58.69
73501;BME280;61721;42.206;25.320;2023-10-31T05:30:20;99685.16;;;14.71;58.77
73501;BME280;61721;42.206;25.320;2023-10-31T05:32:53;99686.28;;;14.61;58.77
73501;BME280;61721;42.206;25.320;2023-10-31T05:35:21;99683.22;;;14.86;58.32
73501;BME280;61721;42.206;25.320;2023-10-31T05:37:50;99682.28;;;14.93;58.50
73501;BME280;61721;42.206;25.320;2023-10-31T05:40:23;99685.72;;;15.02;58.50
73501;BME280;61721;42.206;25.320;2023-10-31T05:42:53;99685.44;;;15.18;58.00
73501;BME280;61721;42.206;25.320;2023-10-31T05:45:20;99687.66;;;15.30;57.69
73501;BME280;61721;42.206;25.320;2023-10-31T05:47:49;99681.19;;;15.31;58.10
73501;BME280;61721;42.206;25.320;2023-10-31T05:50:17;99687.91;;;15.35;58.41
73501;BME280;61721;42.206;25.320;2023-10-31T05:52:44;99678.16;;;15.68;57.81
73501;BME280;61721;42.206;25.320;2023-10-31T05:55:13;99691.66;;;15.83;57.66
73501;BME280;61721;42.206;25.320;2023-10-31T05:57:41;99692.34;;;15.91;57.46
73501;BME280;61721;42.206;25.320;2023-10-31T06:00:11;99695.09;;;15.98;58.31
73501;BME280;61721;42.206;25.320;2023-10-31T06:02:38;99690.19;;;16.15;58.32
73501;BME280;61721;42.206;25.320;2023-10-31T06:05:07;99688.69;;;16.47;58.04
73501;BME280;61721;42.206;25.320;2023-10-31T06:07:34;99698.97;;;16.51;58.37
73501;BME280;61721;42.206;25.320;2023-10-31T06:10:02;99696.97;;;16.67;58.56
73501;BME280;61721;42.206;25.320;2023-10-31T06:12:31;99689.25;;;16.70;58.76
73501;BME280;61721;42.206;25.320;2023-10-31T06:14:58;99700.31;;;16.69;59.28
73501;BME280;61721;42.206;25.320;2023-10-31T06:17:27;99704.25;;;17.20;57.65
73501;BME280;61721;42.206;25.320;2023-10-31T06:19:56;99701.66;;;16.86;59.56
73501;BME280;61721;42.206;25.320;2023-10-31T06:22:23;99704.94;;;16.75;59.22
73501;BME280;61721;42.206;25.320;2023-10-31T06:24:51;99697.50;;;16.55;57.89
73501;BME280;61721;42.206;25.320;2023-10-31T06:27:18;99700.38;;;16.82;57.11
73501;BME280;61721;42.206;25.320;2023-10-31T06:29:46;99699.56;;;16.88;56.99
73501;BME280;61721;42.206;25.320;2023-10-31T06:32:13;99704.41;;;17.06;57.62
73501;BME280;61721;42.206;25.320;2023-10-31T06:34:43;99706.97;;;17.27;56.82
73501;BME280;61721;42.206;25.320;2023-10-31T06:37:11;99707.41;;;17.37;56.06
73501;BME280;61721;42.206;25.320;2023-10-31T06:39:37;99711.44;;;17.74;55.65
73501;BME280;61721;42.206;25.320;2023-10-31T06:42:05;99698.56;;;17.02;58.63
73501;BME280;61721;42.206;25.320;2023-10-31T06:44:33;99714.56;;;17.58;57.53
73501;BME280;61721;42.206;25.320;2023-10-31T06:47:00;99706.59;;;17.50;58.45
73501;BME280;61721;42.206;25.320;2023-10-31T06:49:28;99709.34;;;17.70;57.28
73501;BME280;61721;42.206;25.320;2023-10-31T06:51:57;99705.38;;;17.72;57.53
73501;BME280;61721;42.206;25.320;2023-10-31T06:54:24;99707.03;;;17.93;56.52
73501;BME280;61721;42.206;25.320;2023-10-31T06:56:52;99707.03;;;17.93;57.68
73501;BME280;61721;42.206;25.320;2023-10-31T06:59:19;99706.53;;;18.29;56.17
73501;BME280;61721;42.206;25.320;2023-10-31T07:01:46;99715.69;;;18.61;55.48
73501;BME280;61721;42.206;25.320;2023-10-31T07:04:14;99715.63;;;17.97;56.16
73501;BME280;61721;42.206;25.320;2023-10-31T07:06:43;99726.66;;;18.35;54.18
73501;BME280;61721;42.206;25.320;2023-10-31T07:09:12;99723.25;;;18.46;52.78
73501;BME280;61721;42.206;25.320;2023-10-31T07:11:40;99720.44;;;18.08;53.03
73501;BME280;61721;42.206;25.320;2023-10-31T07:14:07;99721.59;;;18.45;53.69
73501;BME280;61721;42.206;25.320;2023-10-31T07:16:34;99720.09;;;19.45;52.34
73501;BME280;61721;42.206;25.320;2023-10-31T07:19:02;99715.41;;;19.84;51.22
73501;BME280;61721;42.206;25.320;2023-10-31T07:21:29;99719.03;;;20.02;49.34
73501;BME280;61721;42.206;25.320;2023-10-31T07:23:56;99710.84;;;20.21;49.80
73501;BME280;61721;42.206;25.320;2023-10-31T07:26:25;99713.88;;;20.56;48.26
73501;BME280;61721;42.206;25.320;2023-10-31T07:28:53;99716.25;;;20.82;47.51
73501;BME280;61721;42.206;25.320;2023-10-31T07:31:21;99711.16;;;20.86;47.36
73501;BME280;61721;42.206;25.320;2023-10-31T07:33:48;99704.66;;;19.89;49.06
73501;BME280;61721;42.206;25.320;2023-10-31T07:36:16;99708.72;;;20.96;47.83
73501;BME280;61721;42.206;25.320;2023-10-31T07:38:43;99702.97;;;21.16;47.26
73501;BME280;61721;42.206;25.320;2023-10-31T07:41:10;99697.56;;;20.24;49.39
73501;BME280;61721;42.206;25.320;2023-10-31T07:43:39;99698.44;;;20.00;49.99
73501;BME280;61721;42.206;25.320;2023-10-31T07:46:07;99697.16;;;20.02;51.15
73501;BME280;61721;42.206;25.320;2023-10-31T07:48:34;99698.97;;;20.70;48.87
73501;BME280;61721;42.206;25.320;2023-10-31T07:51:01;99704.75;;;21.40;48.19
73501;BME280;61721;42.206;25.320;2023-10-31T07:53:29;99694.47;;;21.77;46.68
73501;BME280;61721;42.206;25.320;2023-10-31T07:55:56;99696.78;;;21.50;47.86
73501;BME280;61721;42.206;25.320;2023-10-31T07:58:24;99693.56;;;22.18;46.88
73501;BME280;61721;42.206;25.320;2023-10-31T08:00:52;99697.31;;;21.82;46.25
73501;BME280;61721;42.206;25.320;2023-10-31T08:03:20;99695.22;;;22.08;46.15
73501;BME280;61721;42.206;25.320;2023-10-31T08:05:47;99697.03;;;21.49;47.73
73501;BME280;61721;42.206;25.320;2023-10-31T08:08:14;99685.97;;;21.67;47.51
73501;BME280;61721;42.206;25.320;2023-10-31T08:10:41;99686.34;;;21.82;47.40
73501;BME280;61721;42.206;25.320;2023-10-31T08:13:10;99676.72;;;22.26;45.70
73501;BME280;61721;42.206;25.320;2023-10-31T08:15:37;99679.91;;;21.77;47.04
73501;BME280;61721;42.206;25.320;2023-10-31T08:18:06;99678.84;;;21.89;46.74
73501;BME280;61721;42.206;25.320;2023-10-31T08:20:33;99673.75;;;23.53;43.72
73501;BME280;61721;42.206;25.320;2023-10-31T08:23:01;99662.91;;;21.03;49.78
73501;BME280;61721;42.206;25.320;2023-10-31T08:25:28;99661.22;;;22.20;47.63
73501;BME280;61721;42.206;25.320;2023-10-31T08:27:58;99656.94;;;23.33;44.89
73501;BME280;61721;42.206;25.320;2023-10-31T08:30:25;99650.50;;;24.11;42.98
73501;BME280;61721;42.206;25.320;2023-10-31T08:32:53;99655.38;;;23.71;43.61
73501;BME280;61721;42.206;25.320;2023-10-31T08:35:22;99651.53;;;23.72;42.98
73501;BME280;61721;42.206;25.320;2023-10-31T08:37:49;99652.38;;;22.42;45.66
73501;BME280;61721;42.206;25.320;2023-10-31T08:40:16;99636.75;;;22.82;44.80
73501;BME280;61721;42.206;25.320;2023-10-31T08:42:43;99634.41;;;24.03;43.47
73501;BME280;61721;42.206;25.320;2023-10-31T08:45:11;99633.56;;;25.07;40.11
73501;BME280;61721;42.206;25.320;2023-10-31T08:47:40;99626.66;;;25.04;40.31
73501;BME280;61721;42.206;25.320;2023-10-31T08:50:07;99628.91;;;24.03;41.31
73501;BME280;61721;42.206;25.320;2023-10-31T08:52:38;99614.66;;;24.06;42.10
73501;BME280;61721;42.206;25.320;2023-10-31T08:55:06;99606.22;;;23.74;41.78
73501;BME280;61721;42.206;25.320;2023-10-31T08:57:35;99612.50;;;25.54;39.38
73501;BME280;61721;42.206;25.320;2023-10-31T09:00:03;99602.16;;;24.59;41.27
73501;BME280;61721;42.206;25.320;2023-10-31T09:02:31;99605.75;;;25.40;39.74
73501;BME280;61721;42.206;25.320;2023-10-31T09:04:58;99605.84;;;26.35;37.54
73501;BME280;61721;42.206;25.320;2023-10-31T09:07:25;99597.38;;;26.51;36.42
73501;BME280;61721;42.206;25.320;2023-10-31T09:09:55;99590.34;;;26.29;36.85
73501;BME280;61721;42.206;25.320;2023-10-31T09:12:23;99584.88;;;24.90;39.24
73501;BME280;61721;42.206;25.320;2023-10-31T09:14:50;99582.38;;;26.32;37.37
73501;BME280;61721;42.206;25.320;2023-10-31T09:17:17;99573.22;;;26.27;37.12
73501;BME280;61721;42.206;25.320;2023-10-31T09:19:44;99580.97;;;26.30;37.27
73501;BME280;61721;42.206;25.320;2023-10-31T09:22:12;99566.88;;;27.24;35.79
73501;BME280;61721;42.206;25.320;2023-10-31T09:24:39;99568.47;;;26.84;35.70
73501;BME280;61721;42.206;25.320;2023-10-31T09:27:09;99564.31;;;26.92;35.65
73501;BME280;61721;42.206;25.320;2023-10-31T09:29:37;99564.53;;;25.93;38.32
73501;BME280;61721;42.206;25.320;2023-10-31T09:32:05;99551.94;;;27.30;34.82
73501;BME280;61721;42.206;25.320;2023-10-31T09:34:34;99546.13;;;27.62;33.97
73501;BME280;61721;42.206;25.320;2023-10-31T09:37:03;99537.38;;;26.32;37.19
73501;BME280;61721;42.206;25.320;2023-10-31T09:39:30;99543.53;;;28.01;33.59
73501;BME280;61721;42.206;25.320;2023-10-31T09:41:57;99533.94;;;27.48;34.67
73501;BME280;61721;42.206;25.320;2023-10-31T09:44:26;99531.72;;;28.50;33.99
73501;BME280;61721;42.206;25.320;2023-10-31T09:46:53;99529.38;;;28.13;33.46
73501;BME280;61721;42.206;25.320;2023-10-31T09:49:19;99531.31;;;29.74;31.28
73501;BME280;61721;42.206;25.320;2023-10-31T09:51:47;99527.88;;;29.24;31.95
73501;BME280;61721;42.206;25.320;2023-10-31T09:54:16;99530.69;;;29.19;31.92
73501;BME280;61721;42.206;25.320;2023-10-31T09:56:43;99511.34;;;29.72;31.02
73501;BME280;61721;42.206;25.320;2023-10-31T09:59:13;99506.63;;;30.82;29.94
73501;BME280;61721;42.206;25.320;2023-10-31T10:01:42;99504.56;;;29.25;31.23
73501;BME280;61721;42.206;25.320;2023-10-31T10:04:15;99492.28;;;29.02;31.49
73501;BME280;61721;42.206;25.320;2023-10-31T10:06:59;99494.16;;;29.70;30.79
73501;BME280;61721;42.206;25.320;2023-10-31T10:09:27;99492.19;;;30.98;28.75
73501;BME280;61721;42.206;25.320;2023-10-31T10:11:55;99482.97;;;28.49;32.33
73501;BME280;61721;42.206;25.320;2023-10-31T10:14:23;99481.84;;;30.66;28.57
73501;BME280;61721;42.206;25.320;2023-10-31T10:16:52;99483.00;;;29.17;31.22
73501;BME280;61721;42.206;25.320;2023-10-31T10:19:21;99466.34;;;28.49;32.28
73501;BME280;61721;42.206;25.320;2023-10-31T10:21:50;99459.75;;;28.45;32.62
73501;BME280;61721;42.206;25.320;2023-10-31T10:24:19;99453.47;;;32.17;27.09
73501;BME280;61721;42.206;25.320;2023-10-31T10:26:46;99449.50;;;30.89;28.20
73501;BME280;61721;42.206;25.320;2023-10-31T10:29:14;99442.47;;;30.22;29.84
73501;BME280;61721;42.206;25.320;2023-10-31T10:31:41;99438.25;;;30.43;28.33
73501;BME280;61721;42.206;25.320;2023-10-31T10:34:13;99434.19;;;30.54;28.01
73501;BME280;61721;42.206;25.320;2023-10-31T10:36:45;99435.72;;;31.30;26.61
73501;BME280;61721;42.206;25.320;2023-10-31T10:39:15;99431.56;;;33.49;24.27
73501;BME280;61721;42.206;25.320;2023-10-31T10:41:46;99436.69;;;33.03;24.66
73501;BME280;61721;42.206;25.320;2023-10-31T10:44:25;99420.78;;;33.03;25.02
73501;BME280;61721;42.206;25.320;2023-10-31T10:46:55;99417.72;;;33.36;24.44
73501;BME280;61721;42.206;25.320;2023-10-31T10:49:25;99421.78;;;33.07;24.26
73501;BME280;61721;42.206;25.320;2023-10-31T10:51:53;99412.09;;;34.41;23.06
73501;BME280;61721;42.206;25.320;2023-10-31T10:54:32;99409.25;;;33.58;24.02
73501;BME280;61721;42.206;25.320;2023-10-31T10:57:08;99398.19;;;33.13;24.30
73501;BME280;61721;42.206;25.320;2023-10-31T10:59:38;99395.31;;;33.27;23.55
73501;BME280;61721;42.206;25.320;2023-10-31T11:02:08;99394.72;;;33.78;23.24
73501;BME280;61721;42.206;25.320;2023-10-31T11:04:38;99387.34;;;33.91;23.64
73501;BME280;61721;42.206;25.320;2023-10-31T11:07:06;99379.25;;;33.72;23.86
73501;BME280;61721;42.206;25.320;2023-10-31T11:09:34;99375.50;;;32.03;25.68
73501;BME280;61721;42.206;25.320;2023-10-31T11:12:02;99369.84;;;33.60;24.47
73501;BME280;61721;42.206;25.320;2023-10-31T11:14:30;99368.16;;;32.43;24.78
73501;BME280;61721;42.206;25.320;2023-10-31T11:17:01;99353.81;;;34.00;23.80
73501;BME280;61721;42.206;25.320;2023-10-31T11:19:30;99355.84;;;33.42;23.98
73501;BME280;61721;42.206;25.320;2023-10-31T11:22:01;99356.88;;;35.10;22.05
73501;BME280;61721;42.206;25.320;2023-10-31T11:24:31;99355.00;;;33.42;23.05
73501;BME280;61721;42.206;25.320;2023-10-31T11:27:01;99350.50;;;32.48;24.68
73501;BME280;61721;42.206;25.320;2023-10-31T11:29:30;99352.19;;;34.68;22.11
73501;BME280;61721;42.206;25.320;2023-10-31T11:31:57;99350.78;;;35.55;21.91
73501;BME280;61721;42.206;25.320;2023-10-31T11:34:26;99348.41;;;35.28;21.75
73501;BME280;61721;42.206;25.320;2023-10-31T11:36:54;99346.44;;;34.56;22.52
73501;BME280;61721;42.206;25.320;2023-10-31T11:42:48;99341.59;;;35.75;20.58
73501;BME280;61721;42.206;25.320;2023-10-31T11:45:33;99326.25;;;35.52;21.21
73501;BME280;61721;42.206;25.320;2023-10-31T11:48:00;99327.13;;;35.73;21.31
73501;BME280;61721;42.206;25.320;2023-10-31T11:50:27;99322.25;;;34.60;23.01
73501;BME280;61721;42.206;25.320;2023-10-31T11:53:05;99316.69;;;34.25;23.08
73501;BME280;61721;42.206;25.320;2023-10-31T11:55:39;99313.53;;;34.70;22.25
73501;BME280;61721;42.206;25.320;2023-10-31T11:58:15;99312.59;;;37.69;19.67
73501;BME280;61721;42.206;25.320;2023-10-31T12:00:43;99322.88;;;37.41;19.66
73501;BME280;61721;42.206;25.320;2023-10-31T12:03:11;99308.28;;;36.24;20.73
73501;BME280;61721;42.206;25.320;2023-10-31T12:05:55;99313.16;;;34.89;21.21
73501;BME280;61721;42.206;25.320;2023-10-31T12:08:27;99296.56;;;35.22;21.33
73501;BME280;61721;42.206;25.320;2023-10-31T12:11:07;99296.50;;;36.64;19.75
73501;BME280;61721;42.206;25.320;2023-10-31T12:13:37;99295.34;;;37.83;19.11
73501;BME280;61721;42.206;25.320;2023-10-31T12:16:05;99279.03;;;36.34;19.70
73501;BME280;61721;42.206;25.320;2023-10-31T12:18:33;99292.94;;;36.42;19.92
73501;BME280;61721;42.206;25.320;2023-10-31T12:21:01;99278.81;;;38.50;18.09
73501;BME280;61721;42.206;25.320;2023-10-31T12:23:28;99273.34;;;39.32;16.92
73501;BME280;61721;42.206;25.320;2023-10-31T12:25:55;99272.31;;;36.71;19.80
73501;BME280;61721;42.206;25.320;2023-10-31T12:28:25;99270.78;;;37.56;19.32
73501;BME280;61721;42.206;25.320;2023-10-31T12:30:54;99273.78;;;36.78;19.43
73501;BME280;61721;42.206;25.320;2023-10-31T12:33:25;99277.53;;;37.06;19.30
73501;BME280;61721;42.206;25.320;2023-10-31T12:35:56;99276.63;;;37.63;18.42
73501;BME280;61721;42.206;25.320;2023-10-31T12:38:24;99276.25;;;37.16;18.68
73501;BME280;61721;42.206;25.320;2023-10-31T12:40:53;99270.50;;;36.42;19.20
73501;BME280;61721;42.206;25.320;2023-10-31T12:43:21;99260.09;;;37.61;18.40
73501;BME280;61721;42.206;25.320;2023-10-31T12:45:50;99244.28;;;38.21;18.13
73501;BME280;61721;42.206;25.320;2023-10-31T12:48:24;99245.16;;;37.97;18.15
73501;BME280;61721;42.206;25.320;2023-10-31T12:51:05;99242.50;;;37.89;18.52
73501;BME280;61721;42.206;25.320;2023-10-31T12:53:34;99244.63;;;36.70;19.20
73501;BME280;61721;42.206;25.320;2023-10-31T12:56:01;99235.44;;;36.36;19.38
73501;BME280;61721;42.206;25.320;2023-10-31T12:58:30;99239.41;;;36.48;19.41
73501;BME280;61721;42.206;25.320;2023-10-31T13:00:59;99224.34;;;35.65;20.16